Time;durP1;ratioP1;P1;durP2;ratioP2;P2;SDS_P1;SDS_P2;PMS_P1;PMS_P2;Temp;Humidity;BMP_temperature;BMP_pressure;BME280_temperature;BME280_humidity;BME280_pressure;Samples;Min_cycle;Max_cycle;Signal;HPM_P1;HPM_P2
2021/01/07 00:00:25;;;;;;;;;;;;;;;22.29;46.63;100490.09;2069648;28;2134;-35
2021/01/07 00:01:25;;;;;;;;;;;;;;;22.30;46.56;100493.75;2070880;28;2533;-35
2021/01/07 00:02:25;;;;;;;;;;;;;;;22.29;46.76;100497.81;2068472;28;2174;-34
2021/01/07 00:03:25;;;;;;;;;;;;;;;22.27;46.64;100495.31;2073581;28;1627;-35
2021/01/07 00:04:26;;;;;;;;;;;;;;;22.22;46.79;100496.44;2073177;28;1360;-35
2021/01/07 00:05:26;;;;;;;;;;;;;;;22.24;46.90;100490.38;2069991;28;2427;-35
2021/01/07 00:06:26;;;;;;;;;;;;;;;22.17;46.99;100495.88;2073544;28;1577;-35
2021/01/07 00:07:26;;;;;;;;;;;;;;;22.18;47.08;100494.69;2071858;28;2296;-35
2021/01/07 00:08:26;;;;;;;;;;;;;;;22.15;47.09;100496.22;2073421;28;1231;-35
2021/01/07 00:09:26;;;;;;;;;;;;;;;22.16;47.26;100489.34;2073822;28;2004;-34
2021/01/07 00:10:26;;;;;;;;;;;;;;;22.18;47.28;100491.84;2069718;28;2284;-35
2021/01/07 00:11:26;;;;;;;;;;;;;;;22.20;47.17;100492.31;2075250;28;1545;-35
2021/01/07 00:12:26;;;;;;;;;;;;;;;22.20;47.08;100484.59;2074580;28;1938;-35
2021/01/07 00:13:26;;;;;;;;;;;;;;;22.20;47.10;100495.16;2075525;28;1202;-35
2021/01/07 00:14:26;;;;;;;;;;;;;;;22.20;47.03;100484.59;2073751;28;1922;-35
2021/01/07 00:15:26;;;;;;;;;;;;;;;22.20;47.09;100493.13;2073480;28;2300;-35
2021/01/07 00:16:27;;;;;;;;;;;;;;;22.17;47.01;100488.16;2074431;28;1343;-34
2021/01/07 00:17:27;;;;;;;;;;;;;;;22.18;47.18;100494.69;2071222;28;3671;-34
2021/01/07 00:18:27;;;;;;;;;;;;;;;22.18;46.96;100486.16;2071806;28;3132;-34
2021/01/07 00:19:27;;;;;;;;;;;;;;;22.19;47.10;100490.66;2075201;28;1789;-34
2021/01/07 00:20:28;;;;;;;;;;;;;;;22.19;47.14;100488.66;2073161;28;1987;-35
2021/01/07 00:21:28;;;;;;;;;;;;;;;22.20;46.98;100486.63;2074852;28;1305;-35
2021/01/07 00:22:28;;;;;;;;;;;;;;;22.20;47.33;100483.78;2075406;28;1681;-35
2021/01/07 00:23:28;;;;;;;;;;;;;;;22.20;47.16;100480.91;2073635;28;1978;-35
2021/01/07 00:24:28;;;;;;;;;;;;;;;22.22;46.90;100487.09;2075383;28;1238;-36
2021/01/07 00:25:28;;;;;;;;;;;;;;;22.20;46.97;100484.59;2074475;28;2007;-34
2021/01/07 00:26:28;;;;;;;;;;;;;;;22.23;47.19;100483.03;2074925;28;1420;-35
2021/01/07 00:27:29;;;;;;;;;;;;;;;22.19;47.15;100484.94;2074676;28;2330;-35
2021/01/07 00:28:29;;;;;;;;;;;;;;;22.19;47.11;100477.25;2075055;28;1239;-35
2021/01/07 00:29:29;;;;;;;;;;;;;;;22.22;46.94;100481.38;2074728;28;1408;-34
2021/01/07 00:30:29;;;;;;;;;;;;;;;21.78;45.29;100478.63;2073869;28;1844;-35
2021/01/07 00:31:29;;;;;;;;;;;;;;;21.54;46.02;100491.00;2074573;28;1923;-36
2021/01/07 00:32:29;;;;;;;;;;;;;;;21.67;48.15;100481.19;2073705;28;2039;-34
2021/01/07 00:33:29;;;;;;;;;;;;;;;21.92;47.12;100484.69;2074392;28;2311;-35
2021/01/07 00:34:29;;;;;;;;;;;;;;;22.07;46.42;100485.03;2075442;28;2438;-35
2021/01/07 00:35:29;;;;;;;;;;;;;;;22.20;46.37;100484.59;2072384;28;3391;-35
2021/01/07 00:36:29;;;;;;;;;;;;;;;22.23;46.11;100483.84;2075642;28;1948;-35
2021/01/07 00:37:29;;;;;;;;;;;;;;;22.21;46.01;100483.38;2071986;28;2344;-35
2021/01/07 00:38:29;;;;;;;;;;;;;;;22.21;46.25;100482.56;2075095;28;1839;-34
2021/01/07 00:39:30;;;;;;;;;;;;;;;22.24;46.17;100479.78;2071251;28;2673;-34
2021/01/07 00:40:30;;;;;;;;;;;;;;;22.29;45.80;100486.41;2071502;28;2184;-34
2021/01/07 00:41:30;;;;;;;;;;;;;;;22.30;45.96;100482.34;2073094;28;1994;-34
2021/01/07 00:42:30;;;;;;;;;;;;;;;22.31;46.16;100486.88;2073891;28;2074;-35
2021/01/07 00:43:30;;;;;;;;;;;;;;;22.34;46.36;100486.13;2074407;28;1669;-34
2021/01/07 00:44:30;;;;;;;;;;;;;;;22.39;46.13;100489.53;2074994;28;1295;-34
2021/01/07 00:45:30;;;;;;;;;;;;;;;22.40;46.15;100491.16;2073554;28;1937;-35
2021/01/07 00:46:30;;;;;;;;;;;;;;;22.42;46.01;100485.94;2074857;28;1553;-35
2021/01/07 00:47:30;;;;;;;;;;;;;;;22.40;46.24;100491.16;2074295;28;2073;-34
2021/01/07 00:48:30;;;;;;;;;;;;;;;22.45;46.16;100493.75;2073562;28;2013;-35
2021/01/07 00:49:31;;;;;;;;;;;;;;;22.42;46.10;100485.09;2070146;28;1697;-34
2021/01/07 00:50:31;;;;;;;;;;;;;;;22.44;46.04;100488.38;2066947;28;1935;-35
2021/01/07 00:51:31;;;;;;;;;;;;;;;22.45;46.00;100488.03;2070981;28;1920;-35
2021/01/07 00:52:31;;;;;;;;;;;;;;;22.43;46.04;100495.31;2071509;28;4142;-35
2021/01/07 00:53:31;;;;;;;;;;;;;;;22.44;46.10;100491.25;2073313;28;2021;-35
2021/01/07 00:54:32;;;;;;;;;;;;;;;22.47;46.13;100496.22;2073829;28;1387;-34
2021/01/07 00:55:32;;;;;;;;;;;;;;;22.48;46.14;100499.91;2071345;28;1850;-34
2021/01/07 00:56:32;;;;;;;;;;;;;;;22.52;46.32;100495.91;2072093;28;1991;-35
2021/01/07 00:57:32;;;;;;;;;;;;;;;22.56;46.19;100496.03;2074378;28;1282;-35
2021/01/07 00:58:32;;;;;;;;;;;;;;;22.51;45.90;100494.28;2072776;28;2204;-35
2021/01/07 00:59:32;;;;;;;;;;;;;;;22.43;46.17;100498.16;2071919;28;1924;-35
2021/01/07 01:00:32;;;;;;;;;;;;;;;22.38;46.40;100498.44;2073095;28;1185;-35
2021/01/07 01:01:32;;;;;;;;;;;;;;;22.36;46.45;100501.69;2072869;28;1994;-35
2021/01/07 01:02:32;;;;;;;;;;;;;;;22.35;46.38;100499.19;2074018;28;1184;-34
2021/01/07 01:03:32;;;;;;;;;;;;;;;22.35;46.28;100502.03;2074457;28;1179;-35
2021/01/07 01:04:33;;;;;;;;;;;;;;;22.35;46.27;100502.84;2072087;28;2120;-35
2021/01/07 01:05:33;;;;;;;;;;;;;;;22.35;46.40;100510.56;2074216;28;1118;-35
2021/01/07 01:06:33;;;;;;;;;;;;;;;22.33;46.35;100512.97;2069963;28;1965;-34
2021/01/07 01:07:33;;;;;;;;;;;;;;;22.32;46.33;100500.75;2074352;28;1393;-35
2021/01/07 01:08:33;;;;;;;;;;;;;;;22.29;46.29;100506.38;2072471;28;2071;-34
2021/01/07 01:09:33;;;;;;;;;;;;;;;22.32;46.27;100511.31;2074796;28;2060;-35
2021/01/07 01:10:33;;;;;;;;;;;;;;;22.31;46.21;100498.28;2074200;28;1310;-35
2021/01/07 01:11:33;;;;;;;;;;;;;;;22.28;46.29;100505.53;2072134;28;2035;-35
2021/01/07 01:12:34;;;;;;;;;;;;;;;22.27;46.36;100503.06;2074077;28;1911;-35
2021/01/07 01:13:34;;;;;;;;;;;;;;;22.26;46.60;100501.41;2074493;28;1293;-35
2021/01/07 01:14:34;;;;;;;;;;;;;;;22.23;46.70;100502.97;2073068;28;2058;-35
2021/01/07 01:15:34;;;;;;;;;;;;;;;22.21;46.42;100502.50;2072636;28;2149;-35
2021/01/07 01:16:34;;;;;;;;;;;;;;;22.21;46.67;100506.19;2073512;28;1901;-35
2021/01/07 01:17:34;;;;;;;;;;;;;;;22.23;46.74;100505.81;2072872;28;3821;-36
2021/01/07 01:18:34;;;;;;;;;;;;;;;22.22;46.68;100505.00;2073764;28;1196;-35
2021/01/07 01:19:34;;;;;;;;;;;;;;;22.26;46.68;100504.25;2072880;28;1937;-35
2021/01/07 01:20:34;;;;;;;;;;;;;;;22.24;46.70;100501.75;2072449;28;1246;-35
2021/01/07 01:21:35;;;;;;;;;;;;;;;22.21;46.75;100509.03;2072679;28;1899;-35
2021/01/07 01:22:35;;;;;;;;;;;;;;;22.23;46.83;100511.53;2072236;28;1984;-34
2021/01/07 01:23:35;;;;;;;;;;;;;;;22.20;46.83;100507.38;2074336;28;1780;-34
2021/01/07 01:24:35;;;;;;;;;;;;;;;22.20;46.80;100512.25;2073829;28;2016;-35
2021/01/07 01:25:35;;;;;;;;;;;;;;;22.17;46.77;100510.94;2072696;28;2253;-35
2021/01/07 01:26:35;;;;;;;;;;;;;;;22.16;46.86;100512.13;2072514;28;1903;-35
2021/01/07 01:27:35;;;;;;;;;;;;;;;22.16;46.90;100517.81;2075231;28;1630;-35
2021/01/07 01:28:35;;;;;;;;;;;;;;;22.17;46.80;100513.78;2073803;28;1200;-36
2021/01/07 01:29:35;;;;;;;;;;;;;;;22.20;47.02;100515.94;2072653;28;1698;-34
2021/01/07 01:30:35;;;;;;;;;;;;;;;22.22;46.89;100512.72;2073463;28;2237;-35
2021/01/07 01:31:35;;;;;;;;;;;;;;;22.20;47.03;100515.94;2072157;28;1999;-35
2021/01/07 01:32:36;;;;;;;;;;;;;;;22.14;47.13;100514.53;2073180;28;1921;-36
2021/01/07 01:33:36;;;;;;;;;;;;;;;22.17;47.24;100518.69;2072839;28;1327;-35
2021/01/07 01:34:36;;;;;;;;;;;;;;;22.17;46.98;100513.78;2071900;28;1202;-36
2021/01/07 01:35:36;;;;;;;;;;;;;;;22.09;47.14;100517.66;2072896;28;2023;-35
2021/01/07 01:36:36;;;;;;;;;;;;;;;22.13;46.99;100514.91;2070587;28;2109;-36
2021/01/07 01:37:36;;;;;;;;;;;;;;;22.18;46.82;100514.66;2074700;28;1941;-35
2021/01/07 01:38:36;;;;;;;;;;;;;;;22.22;46.94;100524.13;2072896;28;1755;-35
2021/01/07 01:39:36;;;;;;;;;;;;;;;22.24;47.19;100516.84;2073839;28;1215;-35
2021/01/07 01:40:36;;;;;;;;;;;;;;;22.26;46.99;100515.66;2073149;28;2082;-35
2021/01/07 01:41:36;;;;;;;;;;;;;;;22.26;47.09;100509.97;2072684;28;2033;-35
2021/01/07 01:42:36;;;;;;;;;;;;;;;22.25;47.15;100512.00;2070497;28;2223;-35
2021/01/07 01:43:36;;;;;;;;;;;;;;;22.30;47.12;100514.53;2070439;28;2039;-34
2021/01/07 01:44:36;;;;;;;;;;;;;;;22.32;46.69;100508.47;2074179;28;1302;-35
2021/01/07 01:45:37;;;;;;;;;;;;;;;22.27;47.02;100505.91;2072965;28;1976;-35
2021/01/07 01:46:37;;;;;;;;;;;;;;;22.30;46.92;100508.00;2072381;28;2005;-35
2021/01/07 01:47:37;;;;;;;;;;;;;;;22.33;46.99;100507.25;2074112;28;1074;-34
2021/01/07 01:48:37;;;;;;;;;;;;;;;22.35;46.90;100500.00;2073868;28;1396;-35
2021/01/07 01:49:37;;;;;;;;;;;;;;;22.36;46.96;100506.56;2073702;28;992;-35
2021/01/07 01:50:37;;;;;;;;;;;;;;;22.33;46.71;100505.25;2072001;28;2301;-35
2021/01/07 01:51:37;;;;;;;;;;;;;;;22.31;46.79;100501.13;2073104;28;3593;-35
2021/01/07 01:52:37;;;;;;;;;;;;;;;22.28;46.91;100510.44;2071833;28;1903;-34
2021/01/07 01:53:37;;;;;;;;;;;;;;;22.29;46.85;100509.22;2073389;28;2095;-34
2021/01/07 01:54:37;;;;;;;;;;;;;;;22.27;46.79;100506.72;2073586;28;1319;-35
2021/01/07 01:55:38;;;;;;;;;;;;;;;22.28;46.68;100514.09;2071871;28;2149;-35
2021/01/07 01:56:38;;;;;;;;;;;;;;;22.26;46.87;100509.97;2073625;28;1840;-35
2021/01/07 01:57:38;;;;;;;;;;;;;;;22.22;46.72;100507.84;2072070;28;1739;-34
2021/01/07 01:58:38;;;;;;;;;;;;;;;22.24;47.00;100510.31;2073001;28;1954;-35
2021/01/07 01:59:38;;;;;;;;;;;;;;;22.18;46.86;100509.78;2073173;28;2047;-34
2021/01/07 02:00:38;;;;;;;;;;;;;;;22.17;47.03;100505.25;2070858;28;2036;-34
2021/01/07 02:01:38;;;;;;;;;;;;;;;22.14;47.02;100508.03;2069176;28;1904;-34
2021/01/07 02:02:38;;;;;;;;;;;;;;;22.13;46.89;100515.72;2072275;28;1327;-34
2021/01/07 02:03:38;;;;;;;;;;;;;;;22.16;47.03;100517.00;2073342;28;1984;-35
2021/01/07 02:04:38;;;;;;;;;;;;;;;22.13;47.09;100518.56;2072741;28;2102;-35
2021/01/07 02:05:38;;;;;;;;;;;;;;;22.09;47.17;100514.81;2070092;28;2042;-34
2021/01/07 02:06:39;;;;;;;;;;;;;;;22.06;47.27;100517.59;2073410;28;1491;-35
2021/01/07 02:07:40;;;;;;;;;;;;;;;22.08;47.10;100515.16;2072744;28;2031;-35
2021/01/07 02:08:40;;;;;;;;;;;;;;;22.09;47.01;100511.97;2073201;28;1997;-35
2021/01/07 02:09:40;;;;;;;;;;;;;;;22.08;47.01;100513.16;2071745;28;2172;-35
2021/01/07 02:10:40;;;;;;;;;;;;;;;22.09;47.13;100519.69;2073165;28;1865;-35
2021/01/07 02:11:40;;;;;;;;;;;;;;;22.07;47.23;100514.34;2071570;28;1185;-35
2021/01/07 02:12:40;;;;;;;;;;;;;;;22.03;47.14;100513.44;2073070;28;1902;-35
2021/01/07 02:13:40;;;;;;;;;;;;;;;22.02;47.11;100514.63;2072140;28;2083;-35
2021/01/07 02:14:40;;;;;;;;;;;;;;;22.01;47.11;100510.94;2072710;28;1923;-35
2021/01/07 02:15:40;;;;;;;;;;;;;;;22.00;47.15;100509.31;2071296;28;1802;-35
2021/01/07 02:16:40;;;;;;;;;;;;;;;22.03;47.03;100507.75;2073239;28;1950;-35
2021/01/07 02:17:40;;;;;;;;;;;;;;;22.01;47.09;100515.81;2073610;28;3788;-35
2021/01/07 02:18:41;;;;;;;;;;;;;;;22.02;47.11;100509.75;2073453;28;1314;-35
2021/01/07 02:19:41;;;;;;;;;;;;;;;21.99;47.22;100515.34;2072617;28;2026;-35
2021/01/07 02:20:41;;;;;;;;;;;;;;;22.01;47.11;100512.97;2073953;28;1410;-35
2021/01/07 02:21:41;;;;;;;;;;;;;;;21.95;47.13;100509.59;2073001;28;2022;-35
2021/01/07 02:22:41;;;;;;;;;;;;;;;21.94;47.27;100512.78;2070334;28;1379;-34
2021/01/07 02:23:41;;;;;;;;;;;;;;;21.93;47.21;100514.81;2073324;28;1864;-35
2021/01/07 02:24:41;;;;;;;;;;;;;;;21.97;47.25;100515.75;2072527;28;2284;-35
2021/01/07 02:25:41;;;;;;;;;;;;;;;21.96;47.27;100507.56;2071048;28;2111;-35
2021/01/07 02:26:42;;;;;;;;;;;;;;;22.00;47.09;100509.31;2071221;28;1447;-35
2021/01/07 02:27:42;;;;;;;;;;;;;;;22.07;47.24;100508.66;2072670;28;1164;-35
2021/01/07 02:28:42;;;;;;;;;;;;;;;22.09;47.14;100520.50;2072397;28;1571;-35
2021/01/07 02:29:42;;;;;;;;;;;;;;;22.08;47.09;100509.47;2071652;28;1788;-34
2021/01/07 02:30:42;;;;;;;;;;;;;;;22.08;47.25;100504.63;2069567;28;1836;-35
2021/01/07 02:31:42;;;;;;;;;;;;;;;22.04;47.26;100502.88;2068341;28;2351;-35
2021/01/07 02:32:42;;;;;;;;;;;;;;;22.05;47.17;100504.50;2071703;28;1894;-35
2021/01/07 02:33:42;;;;;;;;;;;;;;;22.07;47.20;100508.66;2072306;28;2070;-35
2021/01/07 02:34:42;;;;;;;;;;;;;;;22.06;47.17;100509.84;2072786;28;1258;-35
2021/01/07 02:35:42;;;;;;;;;;;;;;;22.05;47.13;100505.34;2072419;28;2374;-35
2021/01/07 02:36:43;;;;;;;;;;;;;;;22.09;46.97;100509.13;2071293;28;1930;-35
2021/01/07 02:37:43;;;;;;;;;;;;;;;22.11;46.86;100506.72;2073827;28;1353;-35
2021/01/07 02:38:43;;;;;;;;;;;;;;;22.13;46.85;100509.19;2071888;28;1406;-35
2021/01/07 02:39:43;;;;;;;;;;;;;;;22.17;46.90;100512.97;2072018;28;1382;-35
2021/01/07 02:40:43;;;;;;;;;;;;;;;22.16;46.59;100509.28;2071753;28;2026;-35
2021/01/07 02:41:43;;;;;;;;;;;;;;;22.16;46.75;100506.41;2069898;28;2002;-35
2021/01/07 02:42:43;;;;;;;;;;;;;;;22.19;46.60;100505.75;2072825;28;1469;-35
2021/01/07 02:43:43;;;;;;;;;;;;;;;22.19;46.74;100502.91;2073451;28;1449;-35
2021/01/07 02:44:43;;;;;;;;;;;;;;;22.20;46.53;100510.25;2072993;28;1828;-34
2021/01/07 02:45:43;;;;;;;;;;;;;;;22.18;46.54;100506.91;2072565;28;2126;-35
2021/01/07 02:46:43;;;;;;;;;;;;;;;22.18;46.73;100498.38;2073770;28;1926;-35
2021/01/07 02:47:44;;;;;;;;;;;;;;;22.20;46.59;100500.88;2073478;28;1197;-35
2021/01/07 02:48:44;;;;;;;;;;;;;;;22.20;46.55;100507.38;2073534;28;1646;-35
2021/01/07 02:49:44;;;;;;;;;;;;;;;22.19;46.65;100505.75;2069705;28;1234;-35
2021/01/07 02:50:44;;;;;;;;;;;;;;;22.21;46.66;100508.22;2070116;28;2014;-35
2021/01/07 02:51:44;;;;;;;;;;;;;;;22.21;46.54;100503.34;2069955;28;3787;-35
2021/01/07 02:52:44;;;;;;;;;;;;;;;22.21;46.61;100499.66;2069995;28;2015;-35
2021/01/07 02:53:44;;;;;;;;;;;;;;;22.17;46.54;100508.09;2072437;28;1282;-35
2021/01/07 02:54:44;;;;;;;;;;;;;;;22.17;46.69;100505.25;2069934;28;2061;-34
2021/01/07 02:55:44;;;;;;;;;;;;;;;22.19;46.49;100500.03;2073632;28;2173;-35
2021/01/07 02:56:44;;;;;;;;;;;;;;;22.17;46.59;100505.25;2073439;28;1995;-35
2021/01/07 02:57:45;;;;;;;;;;;;;;;22.16;46.96;100502.75;2072777;28;1215;-35
2021/01/07 02:58:45;;;;;;;;;;;;;;;22.13;46.75;100504.31;2073571;28;1544;-35
2021/01/07 02:59:45;;;;;;;;;;;;;;;22.12;46.64;100502.69;2070329;28;1987;-35
2021/01/07 03:00:45;;;;;;;;;;;;;;;22.14;46.71;100503.13;2071521;28;2015;-35
2021/01/07 03:01:45;;;;;;;;;;;;;;;22.14;46.82;100508.84;2069648;28;2331;-34
2021/01/07 03:02:45;;;;;;;;;;;;;;;22.15;46.78;100504.78;2072237;28;1226;-35
2021/01/07 03:03:45;;;;;;;;;;;;;;;22.16;46.86;100500.72;2071754;28;2007;-35
2021/01/07 03:04:46;;;;;;;;;;;;;;;22.14;46.99;100502.31;2072994;28;1935;-35
2021/01/07 03:05:46;;;;;;;;;;;;;;;22.13;47.09;100506.34;2071885;28;2294;-35
2021/01/07 03:06:46;;;;;;;;;;;;;;;22.13;47.09;100503.50;2071960;28;2130;-35
2021/01/07 03:07:46;;;;;;;;;;;;;;;22.15;46.98;100503.97;2071935;28;2025;-35
2021/01/07 03:08:46;;;;;;;;;;;;;;;22.10;46.97;100507.91;2073040;28;1819;-35
2021/01/07 03:09:47;;;;;;;;;;;;;;;22.07;47.12;100502.94;2073387;28;1372;-35
2021/01/07 03:10:47;;;;;;;;;;;;;;;22.08;47.26;100498.94;2069606;28;2561;-35
2021/01/07 03:11:47;;;;;;;;;;;;;;;22.05;47.33;100504.50;2071902;28;1341;-35
2021/01/07 03:12:47;;;;;;;;;;;;;;;21.99;47.17;100503.97;2073494;28;1987;-35
2021/01/07 03:13:48;;;;;;;;;;;;;;;21.98;47.33;100506.00;2072445;28;1904;-35
2021/01/07 03:14:48;;;;;;;;;;;;;;;21.98;47.42;100500.28;2072292;28;1947;-35
2021/01/07 03:15:48;;;;;;;;;;;;;;;21.97;47.37;100498.66;2068245;28;2123;-35
2021/01/07 03:16:48;;;;;;;;;;;;;;;21.98;47.40;100494.59;2074363;28;1670;-35
2021/01/07 03:17:48;;;;;;;;;;;;;;;21.97;47.40;100500.66;2071110;28;3767;-35
2021/01/07 03:18:48;;;;;;;;;;;;;;;21.97;47.28;100492.94;2073082;28;1262;-35
2021/01/07 03:19:48;;;;;;;;;;;;;;;21.94;47.36;100498.53;2073361;28;1283;-35
2021/01/07 03:20:48;;;;;;;;;;;;;;;21.93;47.49;100496.91;2071813;28;2444;-35
2021/01/07 03:21:48;;;;;;;;;;;;;;;21.94;47.31;100496.50;2073119;28;1489;-35
2021/01/07 03:22:48;;;;;;;;;;;;;;;21.94;47.48;100492.84;2073005;28;1159;-35
2021/01/07 03:23:49;;;;;;;;;;;;;;;21.94;47.39;100492.84;2073752;28;1224;-35
2021/01/07 03:24:49;;;;;;;;;;;;;;;21.93;47.65;100491.19;2071503;28;2100;-35
2021/01/07 03:25:49;;;;;;;;;;;;;;;21.94;47.55;100496.50;2071221;28;2101;-35
2021/01/07 03:26:49;;;;;;;;;;;;;;;21.94;47.39;100498.53;2071581;28;2011;-34
2021/01/07 03:27:49;;;;;;;;;;;;;;;21.93;47.31;100494.88;2073549;28;1194;-34
2021/01/07 03:28:49;;;;;;;;;;;;;;;21.93;47.29;100489.16;2070638;28;1681;-34
2021/01/07 03:29:49;;;;;;;;;;;;;;;21.94;47.32;100493.66;2070237;28;2004;-35
2021/01/07 03:30:49;;;;;;;;;;;;;;;21.96;47.34;100491.28;2072134;28;2030;-34
2021/01/07 03:31:49;;;;;;;;;;;;;;;22.00;47.26;100495.06;2073644;28;1289;-35
2021/01/07 03:32:49;;;;;;;;;;;;;;;22.00;47.00;100492.22;2071350;28;2040;-35
2021/01/07 03:33:49;;;;;;;;;;;;;;;22.03;47.17;100496.34;2069483;28;1327;-34
2021/01/07 03:34:49;;;;;;;;;;;;;;;22.00;47.05;100492.22;2070941;28;1886;-35
2021/01/07 03:35:49;;;;;;;;;;;;;;;22.05;47.00;100490.28;2070293;28;2591;-35
2021/01/07 03:36:50;;;;;;;;;;;;;;;22.04;47.03;100492.28;2071677;28;2046;-34
2021/01/07 03:37:50;;;;;;;;;;;;;;;22.03;46.99;100493.50;2073180;28;1737;-35
2021/01/07 03:38:50;;;;;;;;;;;;;;;22.00;47.12;100492.22;2071949;28;2470;-35
2021/01/07 03:39:50;;;;;;;;;;;;;;;22.00;47.17;100486.53;2072866;28;2076;-35
2021/01/07 03:40:50;;;;;;;;;;;;;;;21.99;47.12;100486.88;2071662;28;1960;-35
2021/01/07 03:41:50;;;;;;;;;;;;;;;21.99;47.00;100495.41;2071459;28;1954;-35
2021/01/07 03:42:50;;;;;;;;;;;;;;;22.02;47.11;100491.81;2073168;28;1196;-35
2021/01/07 03:43:50;;;;;;;;;;;;;;;22.08;47.10;100496.06;2072660;28;1838;-35
2021/01/07 03:44:50;;;;;;;;;;;;;;;22.09;47.07;100494.88;2073186;28;1183;-35
2021/01/07 03:45:50;;;;;;;;;;;;;;;22.11;47.00;100489.63;2073109;28;1551;-35
2021/01/07 03:46:50;;;;;;;;;;;;;;;22.11;47.04;100492.50;2069726;28;2025;-34
2021/01/07 03:47:50;;;;;;;;;;;;;;;22.12;46.91;100499.00;2073890;28;1564;-35
2021/01/07 03:48:51;;;;;;;;;;;;;;;22.10;47.01;100490.81;2072168;28;1324;-35
2021/01/07 03:49:51;;;;;;;;;;;;;;;22.14;46.83;100488.06;2068681;28;2021;-35
2021/01/07 03:50:51;;;;;;;;;;;;;;;22.14;46.96;100491.75;2071782;28;2030;-35
2021/01/07 03:51:51;;;;;;;;;;;;;;;22.13;46.88;100484.38;2070468;28;3642;-35
2021/01/07 03:52:51;;;;;;;;;;;;;;;22.14;46.74;100488.91;2072363;28;2040;-35
2021/01/07 03:53:51;;;;;;;;;;;;;;;22.17;46.63;100496.69;2072745;28;1345;-35
2021/01/07 03:54:51;;;;;;;;;;;;;;;22.15;46.75;100493.38;2071880;28;2248;-35
2021/01/07 03:55:51;;;;;;;;;;;;;;;22.17;46.74;100493.84;2070968;28;2198;-35
2021/01/07 03:56:51;;;;;;;;;;;;;;;22.17;46.69;100491.00;2071952;28;2448;-35
2021/01/07 03:57:51;;;;;;;;;;;;;;;22.19;46.54;100491.50;2073116;28;1342;-35
2021/01/07 03:58:52;;;;;;;;;;;;;;;22.19;46.69;100488.66;2073314;28;1631;-35
2021/01/07 03:59:52;;;;;;;;;;;;;;;22.23;46.82;100498.09;2071350;28;2041;-35
2021/01/07 04:00:52;;;;;;;;;;;;;;;22.19;46.94;100494.34;2071559;28;2112;-35
2021/01/07 04:01:52;;;;;;;;;;;;;;;22.22;46.79;100496.44;2072351;28;1362;-34
2021/01/07 04:02:52;;;;;;;;;;;;;;;22.22;46.87;100496.44;2069807;28;2106;-35
2021/01/07 04:03:52;;;;;;;;;;;;;;;22.19;46.73;100491.50;2072658;28;1255;-35
2021/01/07 04:04:52;;;;;;;;;;;;;;;22.18;46.99;100489.81;2071435;28;2057;-35
2021/01/07 04:05:52;;;;;;;;;;;;;;;22.20;46.82;100495.16;2071381;28;2056;-34
2021/01/07 04:06:52;;;;;;;;;;;;;;;22.16;47.02;100495.03;2071362;28;1704;-35
2021/01/07 04:07:52;;;;;;;;;;;;;;;22.16;46.85;100488.50;2069730;28;3187;-35
2021/01/07 04:08:52;;;;;;;;;;;;;;;22.17;47.00;100487.34;2072179;28;1215;-34
2021/01/07 04:09:52;;;;;;;;;;;;;;;22.17;46.85;100482.44;2072442;28;1757;-34
2021/01/07 04:10:52;;;;;;;;;;;;;;;22.14;47.08;100494.59;2069464;28;1998;-35
2021/01/07 04:11:52;;;;;;;;;;;;;;;22.12;47.11;100487.59;2071846;28;1720;-35
2021/01/07 04:12:53;;;;;;;;;;;;;;;22.12;47.19;100487.59;2070188;28;2249;-35
2021/01/07 04:13:53;;;;;;;;;;;;;;;22.11;47.07;100486.78;2072933;28;1252;-34
2021/01/07 04:14:53;;;;;;;;;;;;;;;22.11;47.23;100489.63;2071987;28;2041;-35
2021/01/07 04:15:53;;;;;;;;;;;;;;;22.09;47.32;100491.19;2066771;28;2064;-34
2021/01/07 04:16:53;;;;;;;;;;;;;;;22.08;47.27;100492.38;2072658;28;1894;-34
2021/01/07 04:17:53;;;;;;;;;;;;;;;22.06;47.27;100489.09;2070492;28;3982;-35
2021/01/07 04:18:53;;;;;;;;;;;;;;;22.07;47.28;100487.88;2072340;28;1812;-35
2021/01/07 04:19:53;;;;;;;;;;;;;;;22.03;47.29;100484.97;2072151;28;2164;-35
2021/01/07 04:20:53;;;;;;;;;;;;;;;22.03;47.28;100487.81;2071662;28;2227;-35
2021/01/07 04:21:54;;;;;;;;;;;;;;;22.02;47.25;100488.97;2073171;28;1328;-35
2021/01/07 04:22:54;;;;;;;;;;;;;;;22.01;47.25;100479.63;2073035;28;1657;-35
2021/01/07 04:23:54;;;;;;;;;;;;;;;22.01;47.35;100485.31;2072892;28;1320;-35
2021/01/07 04:24:54;;;;;;;;;;;;;;;22.00;47.40;100480.81;2071928;28;2149;-35
2021/01/07 04:25:54;;;;;;;;;;;;;;;21.99;47.46;100481.19;2070975;28;2280;-35
2021/01/07 04:26:54;;;;;;;;;;;;;;;21.98;47.46;100476.69;2072812;28;1740;-35
2021/01/07 04:27:54;;;;;;;;;;;;;;;21.96;47.53;100484.75;2072373;28;1960;-35
2021/01/07 04:28:54;;;;;;;;;;;;;;;21.97;47.60;100480.72;2072026;28;1664;-35
2021/01/07 04:29:54;;;;;;;;;;;;;;;21.94;47.54;100478.59;2071788;28;1739;-34
2021/01/07 04:30:54;;;;;;;;;;;;;;;21.94;47.58;100482.28;2071114;28;2251;-35
2021/01/07 04:31:54;;;;;;;;;;;;;;;21.93;47.67;100476.97;2071692;28;1441;-35
2021/01/07 04:32:54;;;;;;;;;;;;;;;21.95;47.55;100472.56;2071987;28;2042;-35
2021/01/07 04:33:55;;;;;;;;;;;;;;;21.93;47.69;100474.94;2072691;28;1700;-35
2021/01/07 04:34:55;;;;;;;;;;;;;;;21.93;47.69;100479.81;2072771;28;1408;-35
2021/01/07 04:35:55;;;;;;;;;;;;;;;21.93;47.58;100476.97;2072393;28;1965;-35
2021/01/07 04:36:55;;;;;;;;;;;;;;;21.94;47.38;100478.59;2072371;28;1719;-36
2021/01/07 04:37:55;;;;;;;;;;;;;;;21.92;47.65;100478.97;2071578;28;2336;-35
2021/01/07 04:38:55;;;;;;;;;;;;;;;21.91;47.43;100479.34;2070480;28;1204;-35
2021/01/07 04:39:55;;;;;;;;;;;;;;;21.94;47.58;100472.91;2072715;28;1753;-35
2021/01/07 04:40:55;;;;;;;;;;;;;;;21.93;47.73;100480.63;2068185;28;2150;-35
2021/01/07 04:41:55;;;;;;;;;;;;;;;21.96;47.45;100468.50;2072417;28;2008;-35
2021/01/07 04:42:55;;;;;;;;;;;;;;;22.04;47.35;100469.50;2071063;28;1937;-35
2021/01/07 04:43:56;;;;;;;;;;;;;;;22.04;47.40;100472.34;2068217;28;1271;-35
2021/01/07 04:44:56;;;;;;;;;;;;;;;22.06;47.12;100472.81;2073215;28;1345;-35
2021/01/07 04:45:56;;;;;;;;;;;;;;;22.09;47.27;100472.06;2071177;28;2011;-35
2021/01/07 04:46:56;;;;;;;;;;;;;;;22.09;47.16;100465.56;2072644;28;1875;-35
2021/01/07 04:47:56;;;;;;;;;;;;;;;22.09;47.24;100476.94;2070854;28;1639;-35
2021/01/07 04:48:56;;;;;;;;;;;;;;;22.10;47.21;100464.34;2072094;28;1760;-35
2021/01/07 04:49:56;;;;;;;;;;;;;;;22.11;47.22;100466.84;2070122;28;1810;-35
2021/01/07 04:50:56;;;;;;;;;;;;;;;22.11;47.17;100469.69;2068736;28;1933;-35
2021/01/07 04:51:56;;;;;;;;;;;;;;;22.15;46.93;100476.28;2068438;28;3611;-35
2021/01/07 04:52:57;;;;;;;;;;;;;;;22.14;47.18;100477.50;2072445;28;1910;-35
2021/01/07 04:53:57;;;;;;;;;;;;;;;22.14;47.17;100477.50;2071228;28;1980;-36
2021/01/07 04:54:57;;;;;;;;;;;;;;;22.15;46.98;100470.59;2073155;28;1323;-35
2021/01/07 04:55:57;;;;;;;;;;;;;;;22.19;46.87;100474.41;2068071;28;2056;-36
2021/01/07 04:56:57;;;;;;;;;;;;;;;22.19;46.97;100474.41;2073571;28;2137;-35
2021/01/07 04:57:57;;;;;;;;;;;;;;;22.18;47.04;100478.44;2072890;28;2041;-35
2021/01/07 04:58:57;;;;;;;;;;;;;;;22.19;47.08;100476.41;2072771;28;1941;-35
2021/01/07 04:59:57;;;;;;;;;;;;;;;22.16;47.12;100480.78;2071767;28;1936;-35
2021/01/07 05:00:57;;;;;;;;;;;;;;;22.15;47.15;100479.13;2073143;28;1974;-35
2021/01/07 05:01:57;;;;;;;;;;;;;;;22.15;47.15;100478.31;2071218;28;1229;-35
2021/01/07 05:02:57;;;;;;;;;;;;;;;22.13;47.09;100486.41;2073889;28;1198;-36
2021/01/07 05:03:57;;;;;;;;;;;;;;;22.12;47.24;100481.91;2070439;28;1905;-35
2021/01/07 05:04:57;;;;;;;;;;;;;;;22.11;47.02;100481.09;2073235;28;1315;-35
2021/01/07 05:05:58;;;;;;;;;;;;;;;22.11;47.03;100481.09;2072979;28;2093;-36
2021/01/07 05:06:58;;;;;;;;;;;;;;;22.09;47.21;100486.31;2072597;28;2299;-35
2021/01/07 05:07:58;;;;;;;;;;;;;;;22.11;46.98;100480.25;2073396;28;2067;-35
2021/01/07 05:08:58;;;;;;;;;;;;;;;22.10;47.13;100485.13;2074729;28;1510;-35
2021/01/07 05:09:58;;;;;;;;;;;;;;;22.08;47.25;100480.97;2073246;28;1985;-36
2021/01/07 05:10:58;;;;;;;;;;;;;;;22.07;47.21;100485.84;2072497;28;1983;-35
2021/01/07 05:11:58;;;;;;;;;;;;;;;22.08;47.13;100483.81;2073909;28;1959;-35
2021/01/07 05:12:58;;;;;;;;;;;;;;;22.09;47.02;100489.16;2074361;28;2090;-35